Time;durP1;ratioP1;P1;durP2;ratioP2;P2;SDS_P1;SDS_P2;PMS_P1;PMS_P2;Temp;Humidity;BMP_temperature;BMP_pressure;BME280_temperature;BME280_humidity;BME280_pressure;Samples;Min_cycle;Max_cycle;Signal;HPM_P1;HPM_P2
2021/08/27 00:00:27;;;;;;;0.00;0.00;;;21.70;74.30;;;;;;5118639;28;20201;-87
2021/08/27 00:02:54;;;;;;;0.00;0.00;;;21.70;74.40;;;;;;5117973;28;20208;-86
2021/08/27 00:05:22;;;;;;;0.00;0.00;;;21.70;74.80;;;;;;5118433;28;20212;-86
2021/08/27 00:07:49;;;;;;;0.00;0.00;;;21.70;74.80;;;;;;5118638;28;20221;-87
2021/08/27 00:10:17;;;;;;;0.00;0.00;;;21.70;75.00;;;;;;5117543;28;20255;-86
2021/08/27 00:12:44;;;;;;;0.00;0.00;;;21.70;74.90;;;;;;5117832;28;20212;-87
2021/08/27 00:15:12;;;;;;;0.60;0.60;;;21.70;75.20;;;;;;5117811;28;20547;-87
2021/08/27 00:17:40;;;;;;;0.10;0.10;;;21.80;75.10;;;;;;5117321;28;20228;-86
2021/08/27 00:20:08;;;;;;;0.10;0.10;;;21.80;75.00;;;;;;5117410;28;20220;-86
2021/08/27 00:22:35;;;;;;;0.07;0.07;;;21.80;75.20;;;;;;5118016;28;20213;-86
2021/08/27 00:25:04;;;;;;;0.00;0.00;;;21.70;75.00;;;;;;5118829;28;20602;-85
2021/08/27 00:27:31;;;;;;;0.10;0.10;;;21.70;74.90;;;;;;5117434;28;20216;-87
2021/08/27 00:30:00;;;;;;;0.33;0.33;;;21.70;74.80;;;;;;5117642;28;20215;-89
2021/08/27 00:32:30;;;;;;;0.00;0.00;;;21.70;74.60;;;;;;5117339;28;20224;-87
2021/08/27 00:34:58;;;;;;;0.50;0.50;;;21.60;74.50;;;;;;5117579;28;20615;-87
2021/08/27 00:37:25;;;;;;;0.00;0.00;;;21.60;74.50;;;;;;5117214;28;20659;-87
2021/08/27 00:39:53;;;;;;;0.10;0.10;;;21.60;74.70;;;;;;5116995;28;20216;-87
2021/08/27 00:42:20;;;;;;;0.00;0.00;;;21.50;74.80;;;;;;5117124;28;20204;-87
2021/08/27 00:44:47;;;;;;;0.00;0.00;;;21.50;75.00;;;;;;5116971;28;20208;-87
2021/08/27 00:47:15;;;;;;;0.10;0.10;;;21.40;75.00;;;;;;5117050;28;20208;-85
2021/08/27 00:49:42;;;;;;;0.00;0.00;;;21.40;74.90;;;;;;5117274;28;20215;-87
2021/08/27 00:52:10;;;;;;;0.00;0.00;;;21.50;74.80;;;;;;5116895;28;20205;-87
2021/08/27 00:54:44;;;;;;;0.00;0.00;;;21.50;74.70;;;;;;5117176;28;20216;-87
2021/08/27 00:57:11;;;;;;;0.10;0.10;;;21.50;74.60;;;;;;5117095;28;20222;-87
2021/08/27 00:59:39;;;;;;;0.00;0.00;;;21.40;74.50;;;;;;5116893;28;20209;-87
2021/08/27 01:02:06;;;;;;;0.10;0.10;;;21.40;74.90;;;;;;5116743;28;20208;-87
2021/08/27 01:04:42;;;;;;;0.10;0.10;;;21.40;75.00;;;;;;5117084;28;20294;-88
2021/08/27 01:07:25;;;;;;;0.10;0.10;;;21.40;75.20;;;;;;5116491;28;20208;-87
2021/08/27 01:10:13;;;;;;;0.10;0.10;;;21.30;75.40;;;;;;5081100;28;20229;-87
2021/08/27 01:13:01;;;;;;;0.00;0.00;;;21.30;75.50;;;;;;5076095;28;20217;-87
2021/08/27 01:16:13;;;;;;;0.00;0.00;;;21.30;75.60;;;;;;5075788;28;20534;-86
2021/08/27 01:18:49;;;;;;;0.00;0.00;;;21.30;75.60;;;;;;5075945;28;20399;-87
2021/08/27 01:21:32;;;;;;;0.00;0.00;;;21.30;75.70;;;;;;5075623;28;20205;-87
2021/08/27 01:24:06;;;;;;;0.33;0.33;;;21.30;75.90;;;;;;5075808;28;20209;-86
2021/08/27 01:26:37;;;;;;;0.10;0.10;;;21.30;76.40;;;;;;5075408;28;20635;-87
2021/08/27 01:29:07;;;;;;;0.00;0.00;;;21.20;76.60;;;;;;5075787;28;20232;-87
2021/08/27 01:31:54;;;;;;;0.10;0.10;;;21.10;76.50;;;;;;5075514;28;20229;-87
2021/08/27 01:34:49;;;;;;;0.10;0.10;;;21.00;76.40;;;;;;5076045;28;20220;-87
2021/08/27 01:37:22;;;;;;;0.00;0.00;;;21.10;76.40;;;;;;5073513;28;20221;-86
2021/08/27 01:39:54;;;;;;;0.10;0.10;;;21.10;76.20;;;;;;5075700;28;20554;-87
2021/08/27 01:42:24;;;;;;;0.00;0.00;;;21.10;76.50;;;;;;5074759;28;20213;-87
2021/08/27 01:44:54;;;;;;;0.00;0.00;;;21.20;77.00;;;;;;5075446;28;20221;-86
2021/08/27 01:47:27;;;;;;;0.10;0.10;;;21.20;77.10;;;;;;5075505;28;20220;-86
2021/08/27 01:49:56;;;;;;;0.10;0.10;;;21.20;77.90;;;;;;5076114;28;20212;-86
2021/08/27 01:52:24;;;;;;;0.10;0.10;;;21.30;78.60;;;;;;5075509;28;20202;-86
2021/08/27 01:54:53;;;;;;;0.47;0.47;;;21.30;78.70;;;;;;5075452;28;20266;-86
2021/08/27 01:57:20;;;;;;;0.07;0.07;;;21.30;78.40;;;;;;5075068;28;20209;-86
2021/08/27 01:59:47;;;;;;;0.00;0.00;;;21.30;78.30;;;;;;5075382;28;20224;-85
2021/08/27 02:02:16;;;;;;;0.23;0.23;;;21.40;78.50;;;;;;5076206;28;20213;-87
2021/08/27 02:04:54;;;;;;;0.93;0.93;;;21.40;79.70;;;;;;5075483;28;20214;-86
2021/08/27 02:07:23;;;;;;;0.67;0.67;;;21.40;79.50;;;;;;5075420;28;20232;-85
2021/08/27 02:09:54;;;;;;;0.03;0.03;;;21.30;79.90;;;;;;5075676;28;20669;-85
2021/08/27 02:12:22;;;;;;;0.00;0.00;;;21.30;80.90;;;;;;5075691;28;20214;-85
2021/08/27 02:14:55;;;;;;;0.30;0.30;;;21.30;81.20;;;;;;5080826;28;20213;-84
2021/08/27 02:17:24;;;;;;;0.10;0.10;;;21.30;82.30;;;;;;5099960;28;20201;-85
2021/08/27 02:19:53;;;;;;;0.00;0.00;;;21.30;83.10;;;;;;5113609;28;20217;-85
2021/08/27 02:22:23;;;;;;;0.20;0.20;;;21.30;83.00;;;;;;5105070;28;20295;-85
2021/08/27 02:25:00;;;;;;;0.30;0.30;;;21.30;83.70;;;;;;5096650;28;20216;-85
2021/08/27 02:27:30;;;;;;;0.00;0.00;;;21.30;83.80;;;;;;5079087;28;20217;-84
2021/08/27 02:29:59;;;;;;;12.97;1.60;;;21.30;84.10;;;;;;5099535;28;20541;-85
2021/08/27 02:32:28;;;;;;;0.10;0.10;;;21.40;83.90;;;;;;5105498;28;20209;-84
2021/08/27 02:35:00;;;;;;;0.10;0.10;;;21.40;84.20;;;;;;5100295;28;20208;-83
2021/08/27 02:37:32;;;;;;;0.10;0.10;;;21.40;84.30;;;;;;5103692;28;20657;-85
2021/08/27 02:40:01;;;;;;;0.10;0.10;;;21.40;84.50;;;;;;5095164;28;20232;-84
2021/08/27 02:42:31;;;;;;;0.10;0.10;;;21.40;84.80;;;;;;5102693;28;20273;-84
2021/08/27 02:45:05;;;;;;;0.00;0.00;;;21.40;84.80;;;;;;5098297;28;20222;-85
2021/08/27 02:47:32;;;;;;;0.10;0.10;;;21.40;85.00;;;;;;5104188;28;20227;-85
2021/08/27 02:50:00;;;;;;;0.10;0.10;;;21.40;85.20;;;;;;5107929;28;20212;-86
2021/08/27 02:52:36;;;;;;;0.30;0.30;;;21.40;85.30;;;;;;5106349;28;20560;-84
2021/08/27 02:55:08;;;;;;;0.00;0.00;;;21.40;85.30;;;;;;5105653;28;20204;-86
2021/08/27 02:58:10;;;;;;;0.10;0.10;;;21.40;85.40;;;;;;5108020;28;20285;-85
2021/08/27 03:00:56;;;;;;;0.10;0.10;;;21.40;85.50;;;;;;5109840;28;20254;-86
2021/08/27 03:03:27;;;;;;;0.03;0.03;;;21.40;85.60;;;;;;5090148;28;20281;-85
2021/08/27 03:06:03;;;;;;;0.10;0.10;;;21.40;85.60;;;;;;5103013;28;20223;-86
2021/08/27 03:08:32;;;;;;;0.10;0.10;;;21.40;85.70;;;;;;5103580;28;20220;-85
2021/08/27 03:11:18;;;;;;;0.17;0.17;;;21.30;85.70;;;;;;5120716;28;20525;-82
2021/08/27 03:13:51;;;;;;;0.00;0.00;;;21.40;85.80;;;;;;5103301;28;20209;-85
2021/08/27 03:16:19;;;;;;;1.30;0.50;;;21.30;85.70;;;;;;5099744;28;20212;-83
2021/08/27 03:18:48;;;;;;;0.00;0.00;;;21.40;85.70;;;;;;5102024;28;20232;-83
2021/08/27 03:21:22;;;;;;;0.00;0.00;;;21.40;85.60;;;;;;5111447;28;20216;-84
2021/08/27 03:23:51;;;;;;;0.10;0.10;;;21.30;85.40;;;;;;5118779;28;20208;-84
2021/08/27 03:26:24;;;;;;;0.17;0.17;;;21.40;85.40;;;;;;5110215;28;20211;-84
2021/08/27 03:28:57;;;;;;;0.67;0.67;;;21.30;85.20;;;;;;5082094;28;20209;-86
2021/08/27 03:31:25;;;;;;;0.37;0.37;;;21.40;85.20;;;;;;5103874;28;20244;-85
2021/08/27 03:33:58;;;;;;;0.23;0.23;;;21.40;85.20;;;;;;5114721;28;20539;-83
2021/08/27 03:36:27;;;;;;;0.10;0.10;;;21.40;85.00;;;;;;5117727;28;20216;-84
2021/08/27 03:38:56;;;;;;;0.30;0.30;;;21.40;84.80;;;;;;5110370;28;20244;-83
2021/08/27 03:41:29;;;;;;;0.10;0.10;;;21.40;84.70;;;;;;5104529;28;20208;-85
2021/08/27 03:43:59;;;;;;;0.10;0.10;;;21.40;84.50;;;;;;5104740;28;20228;-84
2021/08/27 03:46:26;;;;;;;3.80;2.93;;;21.40;84.50;;;;;;5112044;28;20208;-84
2021/08/27 03:48:54;;;;;;;0.03;0.03;;;21.40;84.50;;;;;;5110895;28;20217;-83
2021/08/27 03:51:22;;;;;;;0.23;0.23;;;21.40;84.60;;;;;;5117242;28;20208;-84
2021/08/27 03:54:09;;;;;;;0.10;0.10;;;21.40;84.60;;;;;;5106739;28;20284;-84
2021/08/27 03:56:37;;;;;;;0.10;0.10;;;21.40;84.70;;;;;;5108540;28;20219;-84
2021/08/27 03:59:05;;;;;;;0.00;0.00;;;21.40;84.70;;;;;;5111525;28;20243;-84
2021/08/27 04:01:34;;;;;;;0.00;0.00;;;21.40;84.70;;;;;;5099503;28;20209;-85
2021/08/27 04:04:01;;;;;;;0.00;0.00;;;21.40;84.60;;;;;;5113440;28;20212;-84
2021/08/27 04:06:28;;;;;;;0.00;0.00;;;21.40;84.60;;;;;;5108067;28;20208;-85
2021/08/27 04:08:55;;;;;;;0.00;0.00;;;21.40;84.60;;;;;;5115566;28;20238;-84
2021/08/27 04:11:23;;;;;;;0.10;0.10;;;21.40;84.60;;;;;;5116658;28;20654;-84
2021/08/27 04:13:50;;;;;;;0.00;0.00;;;21.30;84.50;;;;;;5110597;28;20224;-84
2021/08/27 04:16:17;;;;;;;0.00;0.00;;;21.30;84.50;;;;;;5117638;28;20235;-83
2021/08/27 04:18:44;;;;;;;0.27;0.27;;;21.30;84.40;;;;;;5105173;28;20237;-86
2021/08/27 04:21:12;;;;;;;0.10;0.10;;;21.30;84.50;;;;;;5102081;28;20218;-83
2021/08/27 04:23:39;;;;;;;0.00;0.00;;;21.30;84.50;;;;;;5114333;28;20212;-84
2021/08/27 04:26:06;;;;;;;0.10;0.10;;;21.30;84.50;;;;;;5097280;28;20213;-84
2021/08/27 04:28:33;;;;;;;0.00;0.00;;;21.30;84.50;;;;;;5098829;28;20217;-84
2021/08/27 04:31:00;;;;;;;0.00;0.00;;;21.30;84.40;;;;;;5110961;28;20255;-85
2021/08/27 04:33:28;;;;;;;3.13;1.83;;;21.40;84.40;;;;;;5115555;28;20669;-83
2021/08/27 04:35:55;;;;;;;0.00;0.00;;;21.40;84.40;;;;;;5119739;28;20621;-83
2021/08/27 04:38:22;;;;;;;0.10;0.10;;;21.40;84.40;;;;;;5111731;28;20232;-83
2021/08/27 04:40:50;;;;;;;0.83;0.83;;;21.40;84.40;;;;;;5106870;28;20212;-84
2021/08/27 04:43:17;;;;;;;0.10;0.10;;;21.30;84.40;;;;;;5101189;28;20211;-84
2021/08/27 04:45:44;;;;;;;0.10;0.10;;;21.30;84.40;;;;;;5119374;28;20223;-85
2021/08/27 04:48:11;;;;;;;0.00;0.00;;;21.40;84.40;;;;;;5106882;28;20212;-83
2021/08/27 04:50:38;;;;;;;0.10;0.10;;;21.40;84.40;;;;;;5099721;28;20205;-85
2021/08/27 04:53:07;;;;;;;0.00;0.00;;;21.40;84.50;;;;;;5099989;28;20205;-84
2021/08/27 04:55:34;;;;;;;0.10;0.10;;;21.30;84.50;;;;;;5112608;28;20212;-83
2021/08/27 04:58:02;;;;;;;0.20;0.20;;;21.40;84.60;;;;;;5103514;28;20209;-85
2021/08/27 05:00:29;;;;;;;0.13;0.13;;;21.40;84.60;;;;;;5099175;28;20217;-84
2021/08/27 05:02:56;;;;;;;0.10;0.10;;;21.40;84.60;;;;;;5099312;28;20220;-85
2021/08/27 05:05:24;;;;;;;0.10;0.10;;;21.40;84.60;;;;;;5098937;28;20236;-84
2021/08/27 05:07:51;;;;;;;0.30;0.30;;;21.40;84.60;;;;;;5098927;28;20216;-84
2021/08/27 05:10:19;;;;;;;0.10;0.10;;;21.50;84.40;;;;;;5101718;28;20240;-86
2021/08/27 05:12:49;;;;;;;0.10;0.10;;;21.50;84.30;;;;;;5096056;28;20210;-82
2021/08/27 05:15:16;;;;;;;0.57;0.57;;;21.50;84.20;;;;;;5098617;28;20205;-83
2021/08/27 05:17:44;;;;;;;0.27;0.27;;;21.60;84.10;;;;;;5105033;28;20231;-84
2021/08/27 05:20:11;;;;;;;0.10;0.10;;;21.60;83.90;;;;;;5118062;28;20236;-83
2021/08/27 05:22:38;;;;;;;0.00;0.00;;;21.60;83.60;;;;;;5098366;28;20228;-85
2021/08/27 05:25:06;;;;;;;0.50;0.50;;;21.60;83.50;;;;;;5097392;28;20208;-84
2021/08/27 05:27:37;;;;;;;0.10;0.10;;;21.60;83.10;;;;;;5098933;28;20209;-84
2021/08/27 05:30:10;;;;;;;0.10;0.10;;;21.60;82.70;;;;;;5099709;28;20201;-84
2021/08/27 05:32:38;;;;;;;0.00;0.00;;;21.70;82.10;;;;;;5100242;28;20247;-85
2021/08/27 05:35:05;;;;;;;0.77;0.77;;;21.70;81.40;;;;;;5101008;28;20209;-85
2021/08/27 05:37:33;;;;;;;0.10;0.10;;;21.70;80.80;;;;;;5090868;28;20270;-85
2021/08/27 05:40:00;;;;;;;0.10;0.10;;;21.80;80.30;;;;;;5092599;28;20308;-86
2021/08/27 05:42:27;;;;;;;0.10;0.10;;;21.80;79.70;;;;;;5102594;28;20609;-85
2021/08/27 05:44:56;;;;;;;0.00;0.00;;;21.80;79.00;;;;;;5116731;28;20265;-84
2021/08/27 05:47:36;;;;;;;0.00;0.00;;;21.80;78.90;;;;;;5109950;28;20630;-84
2021/08/27 05:50:05;;;;;;;0.00;0.00;;;21.80;78.50;;;;;;5096609;28;20224;-84
2021/08/27 05:52:33;;;;;;;0.00;0.00;;;21.80;78.00;;;;;;5096386;28;20213;-85
2021/08/27 05:55:00;;;;;;;0.00;0.00;;;21.80;77.70;;;;;;5096146;28;20220;-86
2021/08/27 05:57:28;;;;;;;0.00;0.00;;;21.80;77.50;;;;;;5099057;28;20227;-84
2021/08/27 05:59:55;;;;;;;0.10;0.10;;;21.80;77.60;;;;;;5100505;28;20221;-86
2021/08/27 06:02:22;;;;;;;0.00;0.00;;;21.80;77.40;;;;;;5099757;28;20224;-83
2021/08/27 06:04:50;;;;;;;0.20;0.20;;;21.80;77.00;;;;;;5095951;28;20201;-86
2021/08/27 06:07:17;;;;;;;0.50;0.50;;;21.80;77.00;;;;;;5099346;28;20302;-86
2021/08/27 06:09:44;;;;;;;0.00;0.00;;;21.80;76.70;;;;;;5108204;28;20251;-83
2021/08/27 06:12:12;;;;;;;0.10;0.10;;;21.80;76.80;;;;;;5097019;28;20220;-84
2021/08/27 06:14:39;;;;;;;0.00;0.00;;;21.90;76.50;;;;;;5096473;28;20266;-85
2021/08/27 06:17:06;;;;;;;1.30;1.30;;;21.90;76.30;;;;;;5115534;28;20212;-86
2021/08/27 06:19:33;;;;;;;0.10;0.10;;;21.90;76.00;;;;;;5096934;28;20230;-85
2021/08/27 06:22:02;;;;;;;0.00;0.00;;;21.80;75.90;;;;;;5099745;28;20265;-83
2021/08/27 06:24:34;;;;;;;0.00;0.00;;;21.80;75.80;;;;;;5099745;28;20308;-83
2021/08/27 06:27:03;;;;;;;0.00;0.00;;;21.80;75.80;;;;;;5114870;28;20212;-83
2021/08/27 06:29:32;;;;;;;0.10;0.10;;;21.70;76.00;;;;;;5116522;28;20204;-86
2021/08/27 06:31:59;;;;;;;0.10;0.10;;;21.70;75.90;;;;;;5110585;28;20224;-84
2021/08/27 06:34:27;;;;;;;0.00;0.00;;;21.60;76.10;;;;;;5096208;28;20208;-84
2021/08/27 06:36:54;;;;;;;0.10;0.10;;;21.60;76.60;;;;;;5111645;28;20223;-84
2021/08/27 06:39:21;;;;;;;0.00;0.00;;;21.60;77.10;;;;;;5096126;28;20243;-86
2021/08/27 06:41:49;;;;;;;0.17;0.17;;;21.60;77.90;;;;;;5107900;28;20212;-84
2021/08/27 06:44:16;;;;;;;0.10;0.10;;;21.50;78.50;;;;;;5116637;28;20214;-83
2021/08/27 06:46:44;;;;;;;0.00;0.00;;;21.40;78.90;;;;;;5109441;28;20212;-86
2021/08/27 06:49:12;;;;;;;0.00;0.00;;;21.40;79.30;;;;;;5095635;28;20227;-85
2021/08/27 06:51:40;;;;;;;0.00;0.00;;;21.30;79.80;;;;;;5094956;28;20287;-84
2021/08/27 06:54:08;;;;;;;0.20;0.20;;;21.30;80.20;;;;;;5096145;28;20215;-83
2021/08/27 06:57:13;;;;;;;0.00;0.00;;;21.20;80.50;;;;;;5104264;28;20209;-85
2021/08/27 06:59:40;;;;;;;0.00;0.00;;;21.20;80.20;;;;;;5109724;28;20220;-84
2021/08/27 07:04:43;;;;;;;0.00;0.00;;;21.10;80.90;;;;;;4953093;26;20244;-72
2021/08/27 07:07:10;;;;;;;0.00;0.00;;;21.00;81.50;;;;;;5057687;28;20255;-72
2021/08/27 07:09:37;;;;;;;0.00;0.00;;;20.90;82.20;;;;;;5061992;28;20234;-73
2021/08/27 07:12:05;;;;;;;0.00;0.00;;;20.80;82.70;;;;;;5063659;28;20639;-72
2021/08/27 07:14:32;;;;;;;0.10;0.10;;;20.70;83.30;;;;;;5052490;28;20222;-71
2021/08/27 07:17:00;;;;;;;0.00;0.00;;;20.60;82.90;;;;;;5061279;28;20246;-71
2021/08/27 07:19:27;;;;;;;0.00;0.00;;;20.60;82.60;;;;;;5044238;28;20734;-71
2021/08/27 07:21:53;;;;;;;0.03;0.03;;;20.60;82.20;;;;;;5045006;28;20209;-72
2021/08/27 07:24:21;;;;;;;2.23;2.00;;;20.60;81.80;;;;;;5062179;28;20304;-72
2021/08/27 07:26:48;;;;;;;0.00;0.00;;;20.60;80.80;;;;;;5059721;28;20206;-72
2021/08/27 07:29:15;;;;;;;0.40;0.40;;;20.50;80.40;;;;;;5060901;28;20265;-75
2021/08/27 07:31:42;;;;;;;0.00;0.00;;;20.40;80.30;;;;;;5060506;28;20257;-75
2021/08/27 07:34:09;;;;;;;0.03;0.03;;;20.40;80.70;;;;;;5063009;28;20245;-73
2021/08/27 07:36:37;;;;;;;0.10;0.10;;;20.30;80.40;;;;;;5058390;28;20307;-71
2021/08/27 07:39:04;;;;;;;0.10;0.10;;;20.20;80.20;;;;;;5055502;28;20237;-71
2021/08/27 07:41:32;;;;;;;0.00;0.00;;;20.20;80.30;;;;;;5065807;28;20237;-71
2021/08/27 07:43:59;;;;;;;0.00;0.00;;;20.10;79.60;;;;;;5063358;28;20298;-71
2021/08/27 07:46:26;;;;;;;0.00;0.00;;;20.10;79.60;;;;;;5065730;28;20210;-75
2021/08/27 07:48:53;;;;;;;0.60;0.60;;;20.10;79.60;;;;;;5061602;28;20338;-75
2021/08/27 07:51:20;;;;;;;0.00;0.00;;;20.00;79.70;;;;;;5061673;28;20518;-74
2021/08/27 07:53:47;;;;;;;0.00;0.00;;;19.90;80.00;;;;;;5054800;28;20211;-73
2021/08/27 07:56:17;;;;;;;0.10;0.10;;;19.80;80.30;;;;;;5059598;28;20210;-72
2021/08/27 07:58:45;;;;;;;0.07;0.07;;;19.80;80.70;;;;;;5063229;28;20218;-75
2021/08/27 08:01:12;;;;;;;0.00;0.00;;;19.80;80.60;;;;;;5065311;28;20238;-72
2021/08/27 08:03:41;;;;;;;0.00;0.00;;;19.80;80.20;;;;;;5074032;28;20913;-73
2021/08/27 08:06:10;;;;;;;0.50;0.50;;;19.80;80.10;;;;;;5064877;28;20565;-73
2021/08/27 08:08:37;;;;;;;0.10;0.10;;;19.80;80.20;;;;;;5082877;28;20630;-73
2021/08/27 08:11:04;;;;;;;0.10;0.10;;;19.70;80.20;;;;;;5083295;28;20216;-72
2021/08/27 08:13:31;;;;;;;0.00;0.00;;;19.80;80.10;;;;;;5083616;28;20224;-72
2021/08/27 08:15:58;;;;;;;0.10;0.10;;;19.70;80.10;;;;;;5082238;28;20275;-72
2021/08/27 08:18:25;;;;;;;0.10;0.10;;;19.80;79.30;;;;;;5083174;28;20239;-72
2021/08/27 08:20:52;;;;;;;0.00;0.00;;;19.70;79.30;;;;;;5084828;28;20315;-73
2021/08/27 08:23:21;;;;;;;0.00;0.00;;;19.80;79.30;;;;;;5058815;28;20206;-71
2021/08/27 08:25:48;;;;;;;0.10;0.10;;;19.80;79.10;;;;;;5083278;28;20246;-72
2021/08/27 08:28:15;;;;;;;0.10;0.10;;;19.80;78.90;;;;;;5070106;28;20210;-72
2021/08/27 08:30:43;;;;;;;0.00;0.00;;;19.90;77.90;;;;;;5081665;28;20280;-72
2021/08/27 08:33:10;;;;;;;0.10;0.10;;;19.80;77.50;;;;;;5083153;28;20217;-73
2021/08/27 08:35:37;;;;;;;0.00;0.00;;;19.70;78.00;;;;;;5081358;28;20469;-73
2021/08/27 08:38:05;;;;;;;0.10;0.10;;;19.70;78.40;;;;;;5082897;28;20542;-75
2021/08/27 08:40:38;;;;;;;0.00;0.00;;;19.60;78.90;;;;;;5082833;28;20581;-72
2021/08/27 08:43:07;;;;;;;0.00;0.00;;;19.60;79.10;;;;;;5061127;28;20209;-72
2021/08/27 08:45:38;;;;;;;0.00;0.00;;;19.60;79.40;;;;;;5066047;28;20633;-73
2021/08/27 08:48:07;;;;;;;0.10;0.10;;;19.60;79.90;;;;;;5074492;28;20210;-73
2021/08/27 08:50:38;;;;;;;0.73;0.73;;;19.60;80.20;;;;;;5082057;28;20659;-74
2021/08/27 08:53:07;;;;;;;0.10;0.10;;;19.70;80.30;;;;;;5080391;28;20209;-73
2021/08/27 08:55:41;;;;;;;0.00;0.00;;;19.70;80.70;;;;;;5074539;28;20214;-74
2021/08/27 08:58:09;;;;;;;0.00;0.00;;;19.70;80.70;;;;;;5064594;28;20200;-74
2021/08/27 09:00:39;;;;;;;0.00;0.00;;;19.90;80.70;;;;;;5065001;28;20241;-73
2021/08/27 09:03:06;;;;;;;0.10;0.10;;;19.90;80.30;;;;;;5057465;28;20554;-72
2021/08/27 09:05:38;;;;;;;0.00;0.00;;;20.00;80.30;;;;;;5066578;28;20218;-72
2021/08/27 09:08:06;;;;;;;0.20;0.20;;;20.00;80.30;;;;;;5056721;28;20286;-72
2021/08/27 09:10:41;;;;;;;0.00;0.00;;;20.00;80.10;;;;;;5053139;28;20215;-71
2021/08/27 09:13:09;;;;;;;0.00;0.00;;;20.10;79.60;;;;;;5058047;28;20431;-72
2021/08/27 09:15:37;;;;;;;0.00;0.00;;;20.00;79.30;;;;;;5064889;28;20494;-72
2021/08/27 09:18:11;;;;;;;0.10;0.10;;;20.10;78.90;;;;;;5061487;28;20222;-71
2021/08/27 09:20:38;;;;;;;0.30;0.30;;;20.00;78.50;;;;;;5060649;28;20242;-72
2021/08/27 09:23:06;;;;;;;0.10;0.10;;;20.00;78.60;;;;;;5061451;28;20272;-73
2021/08/27 09:25:39;;;;;;;0.10;0.10;;;20.00;78.50;;;;;;5061823;28;20643;-72
2021/08/27 09:28:17;;;;;;;0.00;0.00;;;19.90;78.60;;;;;;5055056;28;20213;-74
2021/08/27 09:30:47;;;;;;;0.00;0.00;;;19.90;78.90;;;;;;5063858;28;20306;-73
2021/08/27 09:33:18;;;;;;;0.00;0.00;;;19.90;78.90;;;;;;5060322;28;20221;-73
2021/08/27 09:36:02;;;;;;;0.00;0.00;;;19.90;79.80;;;;;;5071498;28;20508;-74
2021/08/27 09:38:39;;;;;;;0.10;0.10;;;19.90;79.20;;;;;;5054670;28;20452;-74
2021/08/27 09:41:11;;;;;;;0.10;0.10;;;19.90;79.40;;;;;;5063161;28;20240;-71
2021/08/27 09:43:51;;;;;;;0.00;0.00;;;20.00;79.10;;;;;;5057772;28;20214;-71
2021/08/27 09:46:32;;;;;;;0.10;0.10;;;19.90;79.10;;;;;;5061379;28;20221;-71
2021/08/27 09:49:01;;;;;;;0.00;0.00;;;19.90;79.30;;;;;;5039778;28;20639;-71
2021/08/27 09:51:48;;;;;;;0.00;0.00;;;20.00;79.10;;;;;;5063887;28;20214;-71
2021/08/27 09:54:43;;;;;;;0.10;0.10;;;20.00;79.80;;;;;;5057920;28;20214;-72
2021/08/27 09:57:12;;;;;;;0.10;0.10;;;20.00;79.10;;;;;;5058340;28;20244;-70
2021/08/27 09:59:48;;;;;;;0.00;0.00;;;20.00;79.00;;;;;;5056062;28;20561;-70
2021/08/27 10:02:31;;;;;;;0.00;0.00;;;20.00;78.90;;;;;;5059616;28;20212;-72
2021/08/27 10:04:59;;;;;;;0.10;0.10;;;20.00;78.70;;;;;;5061143;28;20209;-71
2021/08/27 10:07:28;;;;;;;0.10;0.10;;;20.00;78.70;;;;;;5061285;28;20221;-70
2021/08/27 10:09:58;;;;;;;0.10;0.10;;;20.10;78.60;;;;;;5045016;28;20233;-70
2021/08/27 10:12:31;;;;;;;0.10;0.10;;;20.10;78.50;;;;;;5063331;28;20214;-70
2021/08/27 10:15:00;;;;;;;0.10;0.10;;;20.00;78.40;;;;;;5060972;28;20215;-70
2021/08/27 10:17:28;;;;;;;0.00;0.00;;;20.10;78.50;;;;;;5041988;28;20386;-71
2021/08/27 10:19:55;;;;;;;0.00;0.00;;;20.00;78.50;;;;;;5061781;28;20298;-72
2021/08/27 10:22:23;;;;;;;0.10;0.10;;;20.00;78.70;;;;;;5060997;28;20209;-70
2021/08/27 10:24:51;;;;;;;0.10;0.10;;;20.00;78.80;;;;;;5059555;28;20594;-71
2021/08/27 10:27:19;;;;;;;0.10;0.10;;;20.00;78.60;;;;;;5060390;28;20214;-70
2021/08/27 10:29:53;;;;;;;0.10;0.10;;;20.00;78.60;;;;;;5060541;28;20215;-70
2021/08/27 10:32:38;;;;;;;0.10;0.10;;;20.00;78.90;;;;;;5039573;28;20242;-71
2021/08/27 10:35:07;;;;;;;0.10;0.10;;;20.00;79.30;;;;;;5026564;28;20296;-71
2021/08/27 10:37:51;;;;;;;0.00;0.00;;;20.00;79.80;;;;;;5061035;28;20221;-71
2021/08/27 10:40:25;;;;;;;0.03;0.03;;;19.90;80.00;;;;;;5061030;28;20283;-71
2021/08/27 10:42:58;;;;;;;0.10;0.10;;;19.90;80.40;;;;;;5026055;28;20210;-72
2021/08/27 10:45:42;;;;;;;0.00;0.00;;;20.00;80.80;;;;;;5061162;28;20222;-72
2021/08/27 10:48:13;;;;;;;0.83;0.77;;;20.10;81.60;;;;;;5042549;28;20695;-73
2021/08/27 10:50:46;;;;;;;0.00;0.00;;;20.20;81.10;;;;;;5060067;28;20214;-72
2021/08/27 10:53:31;;;;;;;0.00;0.00;;;20.20;81.40;;;;;;5064456;28;20253;-72
2021/08/27 10:56:06;;;;;;;0.00;0.00;;;20.30;81.60;;;;;;5045847;28;20213;-72
2021/08/27 10:58:52;;;;;;;0.10;0.10;;;20.30;81.80;;;;;;5062202;28;20217;-72
2021/08/27 11:01:27;;;;;;;0.30;0.30;;;20.40;82.00;;;;;;5059413;28;20660;-72
2021/08/27 11:04:19;;;;;;;0.10;0.10;;;20.30;82.10;;;;;;5076902;28;20302;-73
2021/08/27 11:06:52;;;;;;;0.00;0.00;;;20.40;82.50;;;;;;5078351;28;20619;-73
2021/08/27 11:09:27;;;;;;;0.10;0.10;;;20.30;82.80;;;;;;5079946;28;20221;-73
2021/08/27 11:12:14;;;;;;;0.10;0.10;;;20.30;82.90;;;;;;5063311;28;20227;-73
2021/08/27 11:14:50;;;;;;;0.00;0.00;;;20.40;83.10;;;;;;5081363;28;20654;-73
2021/08/27 11:17:18;;;;;;;0.00;0.00;;;20.40;83.30;;;;;;5081757;28;20707;-73
2021/08/27 11:19:49;;;;;;;0.00;0.00;;;20.40;83.20;;;;;;5067648;28;20222;-73
2021/08/27 11:22:27;;;;;;;0.10;0.10;;;20.50;83.30;;;;;;5080752;28;20220;-73
2021/08/27 11:25:04;;;;;;;0.10;0.10;;;20.50;83.40;;;;;;5084631;28;20598;-72
2021/08/27 11:27:33;;;;;;;0.10;0.10;;;20.60;83.50;;;;;;5067598;28;20210;-72
2021/08/27 11:30:29;;;;;;;0.10;0.10;;;20.70;83.40;;;;;;5087271;28;20229;-72
2021/08/27 11:32:58;;;;;;;0.00;0.00;;;20.80;83.10;;;;;;5100940;28;20210;-72
2021/08/27 11:35:26;;;;;;;0.10;0.10;;;20.90;82.80;;;;;;5087544;28;20295;-72
2021/08/27 11:38:05;;;;;;;0.10;0.10;;;20.90;82.30;;;;;;5081049;28;20216;-72
2021/08/27 11:40:32;;;;;;;0.10;0.10;;;20.80;82.40;;;;;;5086417;28;20724;-73
2021/08/27 11:43:00;;;;;;;0.10;0.10;;;20.90;82.30;;;;;;5084731;28;20213;-72
2021/08/27 11:45:27;;;;;;;0.00;0.00;;;20.90;82.40;;;;;;5084273;28;20209;-72
2021/08/27 11:48:05;;;;;;;0.00;0.00;;;21.00;82.40;;;;;;5086401;28;20275;-72
2021/08/27 11:50:53;;;;;;;0.10;0.10;;;21.10;81.80;;;;;;5064694;28;20571;-73
2021/08/27 11:53:27;;;;;;;0.00;0.00;;;21.30;81.20;;;;;;5069213;28;20235;-73
2021/08/27 11:55:54;;;;;;;0.00;0.00;;;21.50;81.10;;;;;;5067080;28;20826;-73
2021/08/27 11:58:22;;;;;;;0.00;0.00;;;21.70;80.20;;;;;;5083548;28;20217;-73
2021/08/27 12:00:49;;;;;;;0.10;0.10;;;21.80;79.20;;;;;;5080101;28;20597;-73
2021/08/27 12:03:17;;;;;;;0.07;0.07;;;22.00;78.60;;;;;;5084337;28;20247;-73
2021/08/27 12:05:49;;;;;;;0.00;0.00;;;22.10;78.40;;;;;;5085043;28;20461;-73
2021/08/27 12:08:16;;;;;;;0.00;0.00;;;22.30;78.20;;;;;;5081674;28;20217;-73
2021/08/27 12:10:47;;;;;;;0.00;0.00;;;22.40;77.60;;;;;;5085296;28;20213;-73
2021/08/27 12:13:14;;;;;;;0.00;0.00;;;22.50;77.20;;;;;;5065891;28;20225;-73
2021/08/27 12:15:44;;;;;;;0.00;0.00;;;22.60;76.80;;;;;;5083266;28;20226;-73
2021/08/27 12:18:13;;;;;;;0.00;0.00;;;22.50;75.70;;;;;;5085364;28;20248;-73
2021/08/27 12:20:44;;;;;;;0.00;0.00;;;22.50;75.50;;;;;;5066031;28;20320;-73
2021/08/27 12:23:17;;;;;;;0.10;0.10;;;22.50;75.20;;;;;;5064890;28;20210;-73
2021/08/27 12:25:53;;;;;;;0.00;0.00;;;22.50;74.40;;;;;;5080038;28;20224;-73
2021/08/27 12:28:35;;;;;;;0.10;0.10;;;22.50;74.10;;;;;;5078552;28;20209;-73
2021/08/27 12:31:02;;;;;;;0.10;0.10;;;22.50;73.60;;;;;;5067505;28;20220;-72
2021/08/27 12:33:36;;;;;;;0.10;0.10;;;22.60;73.90;;;;;;5079899;28;20312;-72
2021/08/27 12:36:04;;;;;;;0.10;0.10;;;22.70;73.60;;;;;;5081917;28;20233;-72
2021/08/27 12:38:31;;;;;;;0.10;0.10;;;22.70;73.40;;;;;;5080744;28;20221;-72
2021/08/27 12:41:11;;;;;;;0.10;0.10;;;22.70;72.70;;;;;;5084092;28;20737;-72
2021/08/27 12:43:38;;;;;;;0.20;0.20;;;22.70;72.70;;;;;;5081535;28;20205;-73
2021/08/27 12:46:05;;;;;;;0.10;0.10;;;22.70;72.90;;;;;;5081664;28;20209;-73
2021/08/27 12:48:34;;;;;;;0.07;0.07;;;22.80;72.50;;;;;;5082351;28;20205;-72
2021/08/27 12:51:11;;;;;;;0.00;0.00;;;22.80;72.30;;;;;;5080924;28;20233;-72
2021/08/27 12:53:40;;;;;;;0.00;0.00;;;22.80;72.40;;;;;;5075361;28;20208;-72
2021/08/27 12:56:20;;;;;;;0.00;0.00;;;22.90;72.10;;;;;;5081621;28;20262;-72
2021/08/27 12:58:50;;;;;;;0.10;0.10;;;22.90;71.80;;;;;;5075258;28;20201;-72
2021/08/27 13:01:25;;;;;;;0.00;0.00;;;22.90;71.50;;;;;;5081850;28;20571;-72
2021/08/27 13:03:54;;;;;;;0.10;0.10;;;22.90;71.80;;;;;;5056607;28;20238;-72
2021/08/27 13:06:40;;;;;;;0.00;0.00;;;22.90;72.00;;;;;;5062941;28;20470;-72
2021/08/27 13:09:19;;;;;;;0.00;0.00;;;23.00;72.00;;;;;;5059658;28;20546;-72